createdAt,value
2023-07-27T00:00:15.626Z,6.00
2023-07-27T00:00:47.586Z,6.00
2023-07-27T00:01:19.625Z,6.00
2023-07-27T00:01:51.542Z,6.00
2023-07-27T00:02:27.040Z,6.00
2023-07-27T00:02:59.141Z,6.00
2023-07-27T00:03:31.099Z,6.00
2023-07-27T00:04:03.020Z,6.00
2023-07-27T00:04:35.310Z,6.00
2023-07-27T00:05:07.585Z,6.00
2023-07-27T00:05:39.555Z,6.00
2023-07-27T00:06:11.483Z,6.00
2023-07-27T00:06:43.386Z,6.00
2023-07-27T00:07:15.306Z,6.00
2023-07-27T00:07:47.210Z,6.00
2023-07-27T00:08:19.158Z,7.00
2023-07-27T00:08:51.065Z,7.00
2023-07-27T00:09:23.050Z,7.00
2023-07-27T00:09:55.118Z,7.00
2023-07-27T00:10:29.193Z,6.67
2023-07-27T00:11:01.100Z,6.00
2023-07-27T00:11:33.000Z,6.00
2023-07-27T00:12:05.026Z,6.00
2023-07-27T00:12:36.957Z,6.00
2023-07-27T00:13:08.881Z,6.00
2023-07-27T00:13:40.770Z,6.00
2023-07-27T00:14:12.732Z,6.00
2023-07-27T00:14:44.695Z,6.00
2023-07-27T00:15:16.628Z,6.00
2023-07-27T00:15:48.641Z,6.00
2023-07-27T00:16:20.560Z,6.00
2023-07-27T00:16:52.464Z,6.00
2023-07-27T00:17:24.373Z,6.00
2023-07-27T00:17:56.391Z,6.00
2023-07-27T00:18:28.345Z,6.00
2023-07-27T00:19:00.446Z,6.00
2023-07-27T00:19:32.639Z,7.00
2023-07-27T00:20:05.458Z,7.00
2023-07-27T00:20:37.432Z,7.00
2023-07-27T00:21:09.291Z,7.00
2023-07-27T00:21:41.210Z,7.00
2023-07-27T00:22:13.227Z,7.00
2023-07-27T00:22:45.315Z,7.00
2023-07-27T00:23:17.226Z,7.00
2023-07-27T00:23:49.306Z,7.00
2023-07-27T00:24:21.248Z,7.00
2023-07-27T00:24:53.196Z,7.00
2023-07-27T00:25:25.167Z,7.00
2023-07-27T00:25:57.251Z,7.00
2023-07-27T00:26:29.145Z,7.00
2023-07-27T00:27:01.037Z,7.00
2023-07-27T00:27:33.108Z,7.00
2023-07-27T00:28:05.182Z,7.00
2023-07-27T00:28:37.080Z,7.00
2023-07-27T00:29:09.845Z,7.00
2023-07-27T00:29:41.689Z,7.00
2023-07-27T00:30:14.392Z,7.00
2023-07-27T00:30:46.342Z,7.00
2023-07-27T00:31:18.336Z,7.00
2023-07-27T00:31:51.649Z,7.00
2023-07-27T00:32:23.833Z,7.00
2023-07-27T00:32:55.795Z,7.00
2023-07-27T00:33:27.753Z,7.00
2023-07-27T00:33:59.637Z,6.33
2023-07-27T00:34:31.530Z,6.00
2023-07-27T00:35:03.632Z,6.00
2023-07-27T00:35:35.494Z,6.00
2023-07-27T00:36:07.363Z,6.00
2023-07-27T00:36:39.252Z,6.00
2023-07-27T00:37:11.158Z,6.00
2023-07-27T00:37:43.122Z,6.00
2023-07-27T00:38:15.010Z,6.00
2023-07-27T00:38:46.942Z,6.00
2023-07-27T00:39:18.843Z,6.00
2023-07-27T00:39:50.895Z,6.00
2023-07-27T00:40:22.779Z,6.00
2023-07-27T00:40:54.920Z,6.00
2023-07-27T00:41:26.801Z,6.00
2023-07-27T00:41:58.730Z,6.00
2023-07-27T00:42:30.637Z,6.00
2023-07-27T00:43:02.575Z,6.00
2023-07-27T00:43:34.587Z,6.00
2023-07-27T00:44:06.548Z,6.00
2023-07-27T00:44:38.428Z,6.00
2023-07-27T00:45:10.706Z,6.00
2023-07-27T00:45:42.721Z,6.00
2023-07-27T00:46:15.495Z,6.00
2023-07-27T00:46:47.585Z,6.00
2023-07-27T00:47:19.810Z,6.00
2023-07-27T00:47:51.793Z,6.00
2023-07-27T00:48:24.590Z,6.00
2023-07-27T00:48:56.498Z,6.00
2023-07-27T00:49:29.123Z,6.00
2023-07-27T00:50:01.182Z,6.00
2023-07-27T00:50:36.904Z,6.00
2023-07-27T00:51:09.872Z,6.00
2023-07-27T00:51:45.230Z,6.00
2023-07-27T00:52:18.011Z,6.00
2023-07-27T00:52:49.936Z,6.00
2023-07-27T00:53:22.132Z,6.00
2023-07-27T00:53:54.033Z,6.00
2023-07-27T00:54:26.823Z,6.00
2023-07-27T00:55:00.144Z,6.00
2023-07-27T00:55:33.287Z,6.00
2023-07-27T00:56:05.991Z,6.00
2023-07-27T00:56:39.200Z,6.00
2023-07-27T00:57:12.129Z,6.00
2023-07-27T00:57:44.065Z,6.00
2023-07-27T00:58:16.163Z,6.00
2023-07-27T00:58:48.818Z,6.00
2023-07-27T00:59:20.720Z,6.00
2023-07-27T00:59:53.187Z,6.00
2023-07-27T01:00:25.942Z,6.00
2023-07-27T01:01:00.829Z,6.00
2023-07-27T01:01:33.455Z,6.00
2023-07-27T01:02:05.499Z,6.00
2023-07-27T01:02:38.603Z,6.00
2023-07-27T01:03:10.894Z,6.00
2023-07-27T01:03:43.083Z,6.00
2023-07-27T01:04:15.692Z,6.00
2023-07-27T01:04:48.318Z,6.00
2023-07-27T01:05:20.800Z,6.00
2023-07-27T01:05:52.940Z,6.00
2023-07-27T01:06:25.904Z,6.00
2023-07-27T01:06:57.802Z,6.00
2023-07-27T01:07:29.750Z,6.00
2023-07-27T01:08:01.607Z,6.00
2023-07-27T01:08:33.845Z,6.00
2023-07-27T01:09:05.870Z,6.00
2023-07-27T01:09:37.890Z,6.00
2023-07-27T01:10:11.577Z,6.00
2023-07-27T01:10:56.422Z,6.00
2023-07-27T01:11:44.096Z,6.00
2023-07-27T01:12:27.077Z,6.00
2023-07-27T01:13:10.007Z,6.00
2023-07-27T01:13:51.977Z,6.00
2023-07-27T01:14:44.555Z,6.00
2023-07-27T01:15:22.955Z,6.00
2023-07-27T01:16:02.817Z,6.00
2023-07-27T01:16:58.916Z,6.00
2023-07-27T01:17:40.843Z,6.00
2023-07-27T01:18:23.232Z,6.00
2023-07-27T01:19:16.025Z,6.00
2023-07-27T01:19:47.931Z,7.00
2023-07-27T01:20:26.281Z,7.00
2023-07-27T01:21:15.941Z,7.00
2023-07-27T01:21:57.943Z,7.00
2023-07-27T01:22:32.761Z,7.00
2023-07-27T01:23:16.724Z,7.00
2023-07-27T01:24:10.542Z,7.00
2023-07-27T01:24:57.259Z,7.00
2023-07-27T01:25:40.899Z,7.00
2023-07-27T01:26:47.533Z,7.00
2023-07-27T01:27:32.234Z,7.00
2023-07-27T01:28:25.730Z,7.00
2023-07-27T01:29:35.373Z,7.00
2023-07-27T01:30:28.176Z,8.00
2023-07-27T01:31:09.706Z,8.00
2023-07-27T01:31:45.162Z,8.67
2023-07-27T01:32:22.249Z,9.00
2023-07-27T01:33:04.805Z,9.00
2023-07-27T01:33:43.205Z,9.00
2023-07-27T01:34:24.264Z,10.00
2023-07-27T01:35:01.030Z,10.00
2023-07-27T01:35:41.275Z,10.00
2023-07-27T01:36:18.810Z,10.00
2023-07-27T01:36:58.279Z,10.00
2023-07-27T01:37:31.894Z,10.00
2023-07-27T01:38:06.017Z,10.00
2023-07-27T01:38:42.282Z,10.00
2023-07-27T01:39:18.528Z,10.00
2023-07-27T01:39:53.494Z,10.00
2023-07-27T01:40:26.032Z,10.00
2023-07-27T01:40:59.963Z,10.00
2023-07-27T01:41:34.709Z,10.00
2023-07-27T01:42:10.202Z,10.00
2023-07-27T01:42:44.306Z,10.00
2023-07-27T01:43:18.078Z,10.00
2023-07-27T01:43:50.604Z,10.00
2023-07-27T01:44:28.025Z,10.00
2023-07-27T01:45:00.569Z,10.00
2023-07-27T01:45:32.533Z,9.00
2023-07-27T01:46:07.291Z,9.00
2023-07-27T01:46:41.474Z,9.00
2023-07-27T01:47:15.219Z,9.00
2023-07-27T01:47:48.183Z,9.00
2023-07-27T01:48:21.074Z,9.00
2023-07-27T01:48:56.033Z,9.00
2023-07-27T01:49:30.746Z,9.00
2023-07-27T01:50:03.694Z,9.00
2023-07-27T01:50:36.909Z,9.00
2023-07-27T01:51:10.733Z,9.00
2023-07-27T01:51:44.423Z,9.00
2023-07-27T01:52:17.879Z,9.00
2023-07-27T01:52:51.758Z,9.00
2023-07-27T01:53:26.973Z,9.00
2023-07-27T01:53:59.636Z,9.00
2023-07-27T01:54:33.610Z,9.00
2023-07-27T01:55:07.940Z,9.00
2023-07-27T01:55:41.229Z,9.00
2023-07-27T01:56:14.466Z,9.00
2023-07-27T01:56:46.942Z,9.00
2023-07-27T01:57:19.751Z,9.00
2023-07-27T01:57:52.603Z,8.33
2023-07-27T01:58:25.453Z,8.00
2023-07-27T01:58:59.634Z,8.67
2023-07-27T01:59:33.923Z,9.00
2023-07-27T02:00:07.097Z,9.00
2023-07-27T02:00:40.478Z,9.00
2023-07-27T02:01:12.598Z,9.00
2023-07-27T02:01:45.476Z,9.00
2023-07-27T02:02:18.443Z,9.00
2023-07-27T02:02:51.142Z,9.00
2023-07-27T02:03:23.273Z,9.00
2023-07-27T02:03:55.337Z,9.00
2023-07-27T02:04:27.522Z,9.00
2023-07-27T02:04:59.605Z,9.00
2023-07-27T02:05:31.632Z,9.00
2023-07-27T02:06:03.676Z,9.00
2023-07-27T02:06:35.935Z,9.00
2023-07-27T02:07:08.077Z,9.00
2023-07-27T02:07:40.006Z,9.00
2023-07-27T02:08:11.918Z,9.00
2023-07-27T02:08:43.778Z,9.00
2023-07-27T02:09:15.636Z,9.00
2023-07-27T02:09:47.536Z,9.00
2023-07-27T02:10:22.718Z,9.00
2023-07-27T02:11:03.499Z,9.00
2023-07-27T02:11:35.607Z,9.00
2023-07-27T02:12:16.707Z,8.00
2023-07-27T02:13:06.705Z,8.00
2023-07-27T02:14:05.586Z,8.00
2023-07-27T02:14:47.995Z,8.00
2023-07-27T02:15:26.379Z,8.00
2023-07-27T02:16:11.639Z,8.00
2023-07-27T02:16:57.840Z,8.00
2023-07-27T02:17:41.158Z,8.00
2023-07-27T02:18:25.590Z,8.00
2023-07-27T02:19:01.584Z,8.00
2023-07-27T02:19:39.851Z,8.00
2023-07-27T02:20:17.762Z,8.00
2023-07-27T02:20:51.968Z,8.00
2023-07-27T02:21:26.942Z,8.00
2023-07-27T02:22:01.345Z,8.00
2023-07-27T02:22:34.487Z,8.00
2023-07-27T02:23:07.609Z,8.00
2023-07-27T02:23:41.144Z,8.00
2023-07-27T02:24:14.217Z,8.00
2023-07-27T02:24:46.254Z,8.00
2023-07-27T02:25:18.349Z,8.00
2023-07-27T02:25:50.397Z,8.00
2023-07-27T02:26:23.019Z,8.00
2023-07-27T02:26:56.371Z,8.00
2023-07-27T02:27:28.425Z,8.00
2023-07-27T02:28:00.483Z,8.00
2023-07-27T02:28:34.586Z,8.00
2023-07-27T02:29:06.476Z,8.00
2023-07-27T02:29:38.408Z,8.00
2023-07-27T02:30:10.541Z,8.00
2023-07-27T02:30:42.444Z,8.00
2023-07-27T02:31:14.359Z,8.00
2023-07-27T02:31:46.301Z,8.00
2023-07-27T02:32:18.296Z,8.00
2023-07-27T02:32:50.230Z,8.00
2023-07-27T02:33:22.192Z,8.00
2023-07-27T02:33:54.054Z,8.00
2023-07-27T02:34:25.955Z,8.33
2023-07-27T02:34:58.114Z,9.00
2023-07-27T02:35:30.173Z,9.00
2023-07-27T02:36:02.138Z,9.00
2023-07-27T02:36:34.276Z,9.00
2023-07-27T02:37:06.386Z,9.00
2023-07-27T02:37:38.307Z,9.00
2023-07-27T02:38:10.308Z,9.67
2023-07-27T02:38:42.298Z,10.00
2023-07-27T02:39:14.224Z,10.33
2023-07-27T02:39:46.145Z,13.33
2023-07-27T02:40:18.123Z,18.00
2023-07-27T02:40:51.768Z,20.00
2023-07-27T02:41:25.742Z,21.67
2023-07-27T02:41:57.826Z,22.00
2023-07-27T02:42:29.848Z,21.67
2023-07-27T02:43:03.266Z,21.00
2023-07-27T02:43:35.137Z,20.33
2023-07-27T02:44:07.034Z,20.00
2023-07-27T02:44:39.015Z,20.00
2023-07-27T02:45:11.257Z,19.67
2023-07-27T02:45:43.221Z,19.00
2023-07-27T02:46:15.154Z,19.00
2023-07-27T02:46:47.074Z,19.00
2023-07-27T02:47:19.104Z,18.33
2023-07-27T02:47:51.007Z,18.00
2023-07-27T02:48:22.962Z,17.67
2023-07-27T02:48:56.748Z,17.00
2023-07-27T02:49:28.608Z,17.00
2023-07-27T02:50:00.456Z,17.00
2023-07-27T02:50:32.300Z,17.00
2023-07-27T02:51:04.365Z,17.00
2023-07-27T02:51:36.659Z,17.00
2023-07-27T02:52:08.856Z,17.00
2023-07-27T02:52:44.849Z,17.00
2023-07-27T02:53:16.744Z,17.00
2023-07-27T02:53:48.600Z,17.67
2023-07-27T02:54:20.498Z,18.00
2023-07-27T02:54:52.385Z,18.00
2023-07-27T02:55:24.257Z,18.33
2023-07-27T02:56:00.870Z,19.00
2023-07-27T02:56:32.984Z,20.00
2023-07-27T02:57:05.618Z,20.00
2023-07-27T02:57:37.591Z,20.00
2023-07-27T02:58:09.658Z,20.00
2023-07-27T02:58:41.542Z,20.00
2023-07-27T02:59:13.533Z,20.00
2023-07-27T02:59:45.420Z,20.00
2023-07-27T03:00:17.343Z,20.00
2023-07-27T03:00:56.859Z,19.67
2023-07-27T03:01:28.919Z,19.00
2023-07-27T03:02:00.846Z,19.00
2023-07-27T03:02:32.925Z,19.00
2023-07-27T03:03:04.988Z,19.00
2023-07-27T03:03:36.980Z,19.00
2023-07-27T03:04:08.903Z,19.00
2023-07-27T03:04:40.825Z,18.67
2023-07-27T03:05:12.739Z,18.00
2023-07-27T03:05:44.682Z,18.00
2023-07-27T03:06:16.636Z,18.00
2023-07-27T03:06:48.639Z,17.67
2023-07-27T03:07:20.632Z,17.00
2023-07-27T03:07:52.484Z,17.00
2023-07-27T03:08:24.847Z,16.33
2023-07-27T03:08:56.987Z,16.00
2023-07-27T03:09:28.943Z,16.00
2023-07-27T03:10:00.832Z,16.00
2023-07-27T03:10:36.079Z,16.00
2023-07-27T03:11:07.954Z,16.00
2023-07-27T03:11:39.909Z,16.00
2023-07-27T03:12:13.318Z,16.00
2023-07-27T03:12:45.485Z,16.00
2023-07-27T03:13:17.356Z,16.00
2023-07-27T03:13:49.314Z,16.00
2023-07-27T03:14:21.376Z,16.00
2023-07-27T03:14:53.321Z,16.00
2023-07-27T03:15:25.224Z,16.67
2023-07-27T03:15:57.110Z,17.00
2023-07-27T03:16:29.167Z,17.33
2023-07-27T03:17:01.146Z,20.00
2023-07-27T03:17:35.839Z,24.33
2023-07-27T03:18:08.665Z,30.33
2023-07-27T03:18:40.570Z,32.00
2023-07-27T03:19:12.483Z,32.00
2023-07-27T03:19:44.472Z,32.00
2023-07-27T03:20:16.386Z,31.33
2023-07-27T03:20:48.649Z,30.67
2023-07-27T03:21:20.757Z,30.00
2023-07-27T03:21:53.571Z,29.33
2023-07-27T03:22:25.516Z,29.00
2023-07-27T03:22:57.409Z,29.00
2023-07-27T03:23:29.308Z,29.00
2023-07-27T03:24:01.189Z,28.33
2023-07-27T03:24:34.284Z,28.00
2023-07-27T03:25:06.461Z,27.33
2023-07-27T03:25:39.114Z,27.00
2023-07-27T03:26:14.150Z,29.33
2023-07-27T03:26:46.387Z,36.33
2023-07-27T03:27:18.512Z,43.67
2023-07-27T03:27:50.372Z,49.67
2023-07-27T03:28:22.278Z,52.67
2023-07-27T03:28:54.264Z,50.67
2023-07-27T03:29:26.128Z,46.67
2023-07-27T03:29:57.970Z,44.33
2023-07-27T03:30:30.457Z,43.00
2023-07-27T03:31:02.390Z,42.00
2023-07-27T03:31:34.311Z,41.33
2023-07-27T03:32:06.587Z,39.67
2023-07-27T03:32:39.552Z,37.67
2023-07-27T03:33:11.489Z,37.00
2023-07-27T03:33:43.452Z,37.00
2023-07-27T03:34:15.442Z,37.33
2023-07-27T03:34:47.414Z,42.33
2023-07-27T03:35:19.337Z,51.00
2023-07-27T03:35:51.190Z,56.00
2023-07-27T03:36:23.174Z,59.33
2023-07-27T03:36:55.077Z,62.00
2023-07-27T03:37:27.009Z,68.67
2023-07-27T03:37:58.870Z,76.33
2023-07-27T03:38:31.714Z,84.00
2023-07-27T03:39:03.730Z,94.33
2023-07-27T03:39:35.669Z,113.67
2023-07-27T03:40:08.171Z,134.67
2023-07-27T03:40:41.013Z,145.67
2023-07-27T03:41:14.554Z,164.67
2023-07-27T03:41:46.431Z,190.00
2023-07-27T03:42:18.330Z,215.33
2023-07-27T03:42:50.251Z,234.33
2023-07-27T03:43:22.132Z,248.33
2023-07-27T03:43:54.233Z,264.00
2023-07-27T03:44:26.091Z,279.67
2023-07-27T03:44:57.968Z,287.00
2023-07-27T03:45:29.897Z,285.67
2023-07-27T03:46:01.858Z,281.00
2023-07-27T03:46:34.052Z,282.00
2023-07-27T03:47:06.253Z,271.67
2023-07-27T03:47:38.166Z,253.00
2023-07-27T03:48:10.124Z,240.00
2023-07-27T03:48:42.114Z,227.00
2023-07-27T03:49:13.981Z,217.33
2023-07-27T03:49:45.841Z,216.67
2023-07-27T03:50:17.942Z,220.33
2023-07-27T03:50:49.884Z,216.33
2023-07-27T03:51:21.869Z,209.00
2023-07-27T03:51:53.787Z,205.00
2023-07-27T03:52:25.816Z,203.67
2023-07-27T03:52:58.078Z,207.33
2023-07-27T03:53:31.067Z,219.33
2023-07-27T03:54:02.998Z,229.33
2023-07-27T03:54:34.927Z,239.00
2023-07-27T03:55:07.232Z,250.67
2023-07-27T03:55:39.153Z,260.33
2023-07-27T03:56:11.109Z,259.33
2023-07-27T03:56:42.989Z,238.33
2023-07-27T03:57:14.887Z,226.00
2023-07-27T03:57:48.645Z,216.67
2023-07-27T03:58:20.603Z,188.67
2023-07-27T03:58:52.530Z,172.33
2023-07-27T03:59:24.453Z,159.00
2023-07-27T03:59:58.066Z,150.00
2023-07-27T04:00:30.128Z,146.00
2023-07-27T04:01:02.108Z,146.00
2023-07-27T04:01:34.564Z,139.67
2023-07-27T04:02:06.522Z,132.00
2023-07-27T04:02:38.612Z,131.67
2023-07-27T04:03:10.544Z,136.00
2023-07-27T04:03:42.464Z,143.33
2023-07-27T04:04:14.677Z,152.00
2023-07-27T04:04:47.349Z,159.33
2023-07-27T04:05:19.260Z,162.33
2023-07-27T04:05:52.964Z,163.33
2023-07-27T04:06:24.841Z,164.33
2023-07-27T04:06:56.714Z,165.00
2023-07-27T04:07:28.644Z,166.00
2023-07-27T04:08:00.624Z,166.67
2023-07-27T04:08:32.476Z,167.00
2023-07-27T04:09:04.351Z,166.67
2023-07-27T04:09:36.243Z,159.67
2023-07-27T04:10:08.454Z,144.67
2023-07-27T04:10:41.660Z,140.67
2023-07-27T04:11:13.585Z,149.00
2023-07-27T04:11:45.585Z,153.67
2023-07-27T04:12:17.504Z,155.33
2023-07-27T04:12:49.418Z,166.33
2023-07-27T04:13:21.352Z,182.33
2023-07-27T04:13:53.244Z,186.00
2023-07-27T04:14:25.169Z,185.00
2023-07-27T04:14:57.157Z,185.67
2023-07-27T04:15:29.035Z,186.00
2023-07-27T04:16:00.924Z,187.33
2023-07-27T04:16:33.174Z,190.67
2023-07-27T04:17:05.901Z,189.67
2023-07-27T04:17:38.454Z,188.00
2023-07-27T04:18:10.646Z,187.33
2023-07-27T04:18:42.536Z,186.33
2023-07-27T04:19:14.488Z,184.67
2023-07-27T04:19:46.402Z,174.00
2023-07-27T04:20:18.495Z,162.67
2023-07-27T04:20:50.374Z,156.33
2023-07-27T04:21:22.292Z,149.67
2023-07-27T04:21:54.229Z,150.00
2023-07-27T04:22:26.239Z,151.67
2023-07-27T04:22:58.204Z,155.00
2023-07-27T04:23:30.140Z,157.33
2023-07-27T04:24:02.647Z,160.00
2023-07-27T04:24:34.600Z,171.33
2023-07-27T04:25:07.267Z,186.00
2023-07-27T04:25:39.218Z,187.67
2023-07-27T04:26:11.207Z,186.67
2023-07-27T04:26:43.179Z,184.67
2023-07-27T04:27:15.051Z,183.33
2023-07-27T04:27:46.956Z,178.33
2023-07-27T04:28:19.735Z,167.67
2023-07-27T04:28:51.619Z,156.00
2023-07-27T04:29:23.491Z,149.33
2023-07-27T04:29:55.751Z,150.00
2023-07-27T04:30:27.632Z,151.67
2023-07-27T04:30:59.666Z,153.33
2023-07-27T04:31:31.569Z,155.67
2023-07-27T04:32:04.038Z,156.67
2023-07-27T04:32:35.969Z,157.67
2023-07-27T04:33:07.934Z,160.33
2023-07-27T04:33:39.808Z,164.00
2023-07-27T04:34:11.690Z,171.33
2023-07-27T04:34:43.591Z,185.67
2023-07-27T04:35:15.653Z,196.67
2023-07-27T04:35:47.521Z,213.67
2023-07-27T04:36:19.416Z,225.67
2023-07-27T04:36:51.350Z,230.33
2023-07-27T04:37:23.318Z,232.33
2023-07-27T04:37:55.206Z,237.67
2023-07-27T04:38:27.091Z,239.67
2023-07-27T04:38:58.989Z,237.67
2023-07-27T04:39:30.873Z,229.00
2023-07-27T04:40:02.889Z,220.33
2023-07-27T04:40:34.795Z,217.00
2023-07-27T04:41:06.703Z,216.00
2023-07-27T04:41:38.807Z,215.33
2023-07-27T04:42:10.695Z,214.33
2023-07-27T04:42:42.842Z,213.00
2023-07-27T04:43:14.755Z,213.00
2023-07-27T04:43:46.695Z,213.00
2023-07-27T04:44:18.704Z,216.00
2023-07-27T04:44:50.597Z,220.33
2023-07-27T04:45:23.307Z,223.33
2023-07-27T04:45:55.231Z,229.00
2023-07-27T04:46:27.188Z,239.67
2023-07-27T04:46:59.505Z,245.67
2023-07-27T04:47:31.787Z,245.67
2023-07-27T04:48:04.900Z,242.67
2023-07-27T04:48:36.836Z,243.33
2023-07-27T04:49:08.889Z,235.67
2023-07-27T04:49:40.895Z,232.00
2023-07-27T04:50:13.047Z,230.00
2023-07-27T04:50:44.983Z,227.33
2023-07-27T04:51:16.942Z,226.33
2023-07-27T04:51:48.821Z,226.00
2023-07-27T04:52:20.734Z,225.67
2023-07-27T04:52:52.637Z,226.33
2023-07-27T04:53:24.532Z,231.00
2023-07-27T04:53:56.478Z,235.33
2023-07-27T04:54:28.386Z,233.00
2023-07-27T04:55:00.302Z,231.00
2023-07-27T04:55:32.156Z,226.33
2023-07-27T04:56:04.142Z,215.00
2023-07-27T04:56:36.265Z,205.00
2023-07-27T04:57:08.422Z,194.67
2023-07-27T04:57:40.320Z,180.33
2023-07-27T04:58:12.222Z,170.33
2023-07-27T04:58:44.482Z,163.00
2023-07-27T04:59:16.800Z,153.67
2023-07-27T04:59:48.742Z,146.00
2023-07-27T05:00:20.752Z,144.00
2023-07-27T05:00:54.990Z,145.33
2023-07-27T05:01:26.968Z,145.00
2023-07-27T05:01:59.106Z,140.33
2023-07-27T05:02:31.199Z,137.00
2023-07-27T05:03:03.210Z,130.33
2023-07-27T05:03:35.104Z,121.00
2023-07-27T05:04:07.074Z,115.67
2023-07-27T05:04:39.188Z,124.33
2023-07-27T05:05:11.949Z,131.33
2023-07-27T05:05:44.767Z,126.67
2023-07-27T05:06:16.660Z,117.67
2023-07-27T05:06:48.562Z,111.00
2023-07-27T05:07:22.108Z,108.67
2023-07-27T05:07:54.230Z,111.67
2023-07-27T05:08:26.179Z,114.33
2023-07-27T05:08:58.139Z,113.67
2023-07-27T05:09:30.981Z,108.33
2023-07-27T05:10:03.030Z,103.00
2023-07-27T05:10:34.904Z,94.67
2023-07-27T05:11:09.981Z,86.33
2023-07-27T05:11:41.939Z,82.33
2023-07-27T05:12:13.858Z,81.67
2023-07-27T05:12:45.755Z,80.00
2023-07-27T05:13:17.719Z,77.00
2023-07-27T05:13:51.646Z,74.67
2023-07-27T05:14:23.531Z,75.00
2023-07-27T05:14:55.724Z,78.00
2023-07-27T05:15:27.643Z,79.00
2023-07-27T05:15:59.887Z,78.33
2023-07-27T05:16:32.392Z,77.00
2023-07-27T05:17:04.629Z,76.67
2023-07-27T05:17:36.543Z,77.00
2023-07-27T05:18:08.725Z,75.67
2023-07-27T05:18:40.642Z,75.00
2023-07-27T05:19:12.598Z,75.00
2023-07-27T05:19:44.502Z,77.33
2023-07-27T05:20:16.489Z,83.33
2023-07-27T05:20:48.352Z,85.67
2023-07-27T05:21:20.633Z,86.67
2023-07-27T05:21:52.546Z,87.00
2023-07-27T05:22:24.580Z,88.00
2023-07-27T05:22:56.430Z,86.33
2023-07-27T05:23:28.873Z,80.00
2023-07-27T05:24:00.801Z,73.00
2023-07-27T05:24:32.834Z,69.00
2023-07-27T05:25:06.230Z,69.00
2023-07-27T05:25:38.182Z,70.00
2023-07-27T05:26:10.159Z,73.00
2023-07-27T05:26:43.211Z,74.00
2023-07-27T05:27:15.091Z,73.00
2023-07-27T05:27:47.067Z,70.00
2023-07-27T05:28:19.126Z,65.33
2023-07-27T05:28:51.008Z,58.67
2023-07-27T05:29:23.101Z,54.00
2023-07-27T05:29:55.033Z,53.67
2023-07-27T05:30:26.928Z,54.00
2023-07-27T05:30:58.811Z,54.00
2023-07-27T05:31:30.715Z,53.00
2023-07-27T05:32:02.604Z,53.00
2023-07-27T05:32:34.535Z,53.33
2023-07-27T05:33:06.748Z,54.00
2023-07-27T05:33:38.615Z,54.00
2023-07-27T05:34:10.558Z,53.00
2023-07-27T05:34:42.434Z,52.33
2023-07-27T05:35:14.377Z,53.67
2023-07-27T05:35:50.041Z,55.67
2023-07-27T05:36:21.982Z,57.33
2023-07-27T05:36:53.859Z,58.67
2023-07-27T05:37:25.764Z,60.33
2023-07-27T05:37:57.772Z,61.00
2023-07-27T05:38:29.700Z,61.33
2023-07-27T05:39:01.649Z,61.00
2023-07-27T05:39:33.656Z,60.00
2023-07-27T05:40:06.449Z,59.33
2023-07-27T05:40:38.637Z,59.00
2023-07-27T05:41:10.573Z,59.33
2023-07-27T05:41:42.568Z,60.00
2023-07-27T05:42:14.431Z,60.00
2023-07-27T05:42:46.375Z,59.67
2023-07-27T05:43:18.446Z,58.67
2023-07-27T05:43:50.706Z,58.00
2023-07-27T05:44:22.948Z,57.00
2023-07-27T05:44:54.839Z,56.33
2023-07-27T05:45:26.819Z,55.33
2023-07-27T05:45:58.783Z,53.67
2023-07-27T05:46:32.005Z,52.67
2023-07-27T05:47:05.066Z,51.33
2023-07-27T05:47:37.539Z,50.33
2023-07-27T05:48:09.646Z,51.33
2023-07-27T05:48:41.517Z,52.00
2023-07-27T05:49:13.826Z,53.00
2023-07-27T05:49:45.830Z,53.00
2023-07-27T05:50:18.535Z,53.00
2023-07-27T05:50:53.159Z,51.67
2023-07-27T05:51:25.132Z,51.00
2023-07-27T05:51:57.043Z,50.00
2023-07-27T05:52:29.351Z,48.67
2023-07-27T05:53:01.404Z,47.67
2023-07-27T05:53:33.333Z,47.00
2023-07-27T05:54:05.335Z,47.33
2023-07-27T05:54:37.263Z,48.00
2023-07-27T05:55:09.706Z,49.33
2023-07-27T05:55:41.592Z,51.67
2023-07-27T05:56:15.615Z,53.33
2023-07-27T05:56:47.755Z,54.00
2023-07-27T05:57:19.721Z,54.00
2023-07-27T05:57:51.618Z,54.00
2023-07-27T05:58:26.188Z,54.00
2023-07-27T05:58:58.458Z,54.00
2023-07-27T05:59:30.384Z,54.00
2023-07-27T06:00:06.916Z,53.00
2023-07-27T06:00:39.971Z,53.00
2023-07-27T06:01:11.927Z,52.33
2023-07-27T06:01:43.856Z,52.00
2023-07-27T06:02:15.853Z,52.00
2023-07-27T06:02:47.783Z,51.67
2023-07-27T06:03:20.328Z,51.00
2023-07-27T06:04:06.797Z,49.67
2023-07-27T06:04:40.615Z,47.33
2023-07-27T06:05:12.498Z,45.67
2023-07-27T06:05:45.282Z,45.33
2023-07-27T06:06:17.200Z,46.00
2023-07-27T06:06:49.348Z,46.00
2023-07-27T06:07:21.401Z,47.00
2023-07-27T06:07:53.772Z,47.00
2023-07-27T06:08:25.700Z,47.00
2023-07-27T06:08:57.671Z,47.00
2023-07-27T06:09:29.931Z,47.00
2023-07-27T06:10:02.001Z,47.00
2023-07-27T06:10:33.997Z,46.00
2023-07-27T06:11:09.553Z,46.00
2023-07-27T06:11:42.055Z,46.00
2023-07-27T06:12:14.026Z,46.67
2023-07-27T06:12:45.923Z,47.67
2023-07-27T06:13:17.870Z,49.00
2023-07-27T06:13:49.823Z,50.00
2023-07-27T06:14:21.773Z,50.00
2023-07-27T06:14:53.675Z,50.00
2023-07-27T06:15:25.626Z,49.33
2023-07-27T06:15:57.686Z,49.00
2023-07-27T06:16:29.658Z,50.00
2023-07-27T06:17:01.536Z,50.67
2023-07-27T06:17:33.717Z,51.33
2023-07-27T06:18:06.727Z,55.00
2023-07-27T06:18:39.228Z,60.00
2023-07-27T06:19:11.260Z,61.00
2023-07-27T06:19:43.227Z,60.00
2023-07-27T06:20:15.122Z,59.33
2023-07-27T06:20:47.026Z,57.67
2023-07-27T06:21:18.917Z,55.33
2023-07-27T06:21:50.810Z,53.00
2023-07-27T06:22:24.827Z,50.67
2023-07-27T06:22:57.143Z,48.67
2023-07-27T06:23:29.326Z,46.33
2023-07-27T06:24:01.573Z,44.00
2023-07-27T06:24:33.666Z,41.67
2023-07-27T06:25:05.933Z,40.33
2023-07-27T06:25:43.851Z,38.67
2023-07-27T06:26:15.801Z,38.00
2023-07-27T06:26:47.703Z,37.00
2023-07-27T06:27:19.625Z,37.00
2023-07-27T06:27:51.588Z,37.00
2023-07-27T06:28:23.572Z,36.00
2023-07-27T06:28:55.544Z,36.00
2023-07-27T06:29:27.649Z,36.00
2023-07-27T06:29:59.638Z,36.00
2023-07-27T06:30:31.544Z,35.00
2023-07-27T06:31:04.021Z,34.33
2023-07-27T06:31:36.061Z,33.00
2023-07-27T06:32:08.568Z,32.67
2023-07-27T06:32:40.690Z,32.00
2023-07-27T06:33:13.151Z,32.00
2023-07-27T06:33:45.683Z,32.00
2023-07-27T06:34:18.230Z,31.67
2023-07-27T06:34:50.210Z,31.00
2023-07-27T06:35:22.399Z,31.00
2023-07-27T06:35:54.252Z,30.00
2023-07-27T06:36:26.154Z,30.00
2023-07-27T06:36:58.034Z,31.00
2023-07-27T06:37:29.897Z,31.33
2023-07-27T06:38:01.758Z,32.00
2023-07-27T06:38:33.890Z,32.33
2023-07-27T06:39:06.431Z,33.00
2023-07-27T06:39:38.343Z,33.67
2023-07-27T06:40:10.370Z,34.33
2023-07-27T06:40:42.510Z,35.33
2023-07-27T06:41:14.482Z,36.00
2023-07-27T06:41:46.419Z,36.33
2023-07-27T06:42:18.290Z,38.00
2023-07-27T06:42:50.221Z,39.67
2023-07-27T06:43:22.201Z,40.00
2023-07-27T06:43:54.211Z,40.00
2023-07-27T06:44:26.255Z,40.00
2023-07-27T06:44:58.829Z,40.00
2023-07-27T06:45:30.763Z,40.00
2023-07-27T06:46:02.664Z,39.00
2023-07-27T06:46:35.364Z,38.67
2023-07-27T06:47:08.076Z,38.00
2023-07-27T06:47:40.406Z,37.33
2023-07-27T06:48:12.652Z,37.00
2023-07-27T06:48:44.616Z,37.00
2023-07-27T06:49:16.595Z,37.00
2023-07-27T06:49:48.524Z,37.00
2023-07-27T06:50:20.444Z,36.33
2023-07-27T06:50:53.045Z,36.00
2023-07-27T06:51:25.342Z,35.67
2023-07-27T06:51:57.227Z,34.33
2023-07-27T06:52:29.224Z,33.67
2023-07-27T06:53:01.118Z,33.00
2023-07-27T06:53:33.034Z,33.00
2023-07-27T06:54:05.152Z,33.00
2023-07-27T06:54:38.114Z,33.00
2023-07-27T06:55:10.168Z,34.00
2023-07-27T06:55:42.761Z,34.00
2023-07-27T06:56:14.611Z,34.67
2023-07-27T06:56:46.542Z,35.00
2023-07-27T06:57:18.517Z,35.00
2023-07-27T06:57:50.540Z,35.00
2023-07-27T06:58:22.436Z,35.00
2023-07-27T06:58:54.401Z,36.00
2023-07-27T06:59:27.964Z,36.00
2023-07-27T07:00:02.285Z,37.00
2023-07-27T07:00:34.256Z,37.00
2023-07-27T07:01:06.209Z,37.33
2023-07-27T07:01:38.185Z,38.00
2023-07-27T07:02:10.126Z,39.00
2023-07-27T07:02:42.226Z,39.00
2023-07-27T07:03:14.336Z,39.00
2023-07-27T07:03:46.299Z,39.00
2023-07-27T07:04:18.195Z,39.00
2023-07-27T07:04:50.257Z,39.00
2023-07-27T07:05:22.142Z,39.00
2023-07-27T07:05:57.224Z,39.00
2023-07-27T07:06:29.224Z,38.00
2023-07-27T07:07:01.227Z,38.00
2023-07-27T07:07:34.143Z,38.00
2023-07-27T07:08:06.158Z,38.00